Terminal Aerodrome Forecast
Issued by NWS Cleveland, OH

Home | Current Version | Previous Version | Text Only | Print | Product List | Glossary Off
Versions: 1 2 3 4 5 6 7 8 9 10 11 12 13 14 15 16 17 18 19 20 21 22 23 24 25

000
FTUS41 KCLE 241000 AAC
TAFMFD
TAF AMD
KMFD 241016Z 2410/2506 25004KT 5SM BR OVC004
      TEMPO 2410/2412 OVC008
     FM241200 25010KT P6SM SCT008 OVC012
     FM241900 25010KT 4SM -DZ BR OVC008 PROB30 2502/2506 4SM
      -FZDZSN=

USA.gov is the U.S. government's official web portal to all federal, state and local government web resources and services.